Tropical Cyclones
[Index]
Main Index Home Page Stock Weather Photos Extreme Storms Discussion Storm News and Storm Chasing Reports Tropical Cyclones / Hurricanes / Typhoons Weather Data and Links Wild Fires / Bushfires Weather Observation Techniques Weather Picture Catalogue Tornado Pictures and Reports Stock Video Footage and DVDs for sale
Season 2011-2012 Tropical Cyclone IRINA Track Map
Season 2011-2012 Summaries (Operational Data): [AU] [SIO] [SPAC] [SH]
<<- Previous TC | 2011-2012 Season | Next TC ->>

click for intensity scale information  Lat/long Grid: Show Hide

 Date Labels: Show Hide

Operational Tropical Cyclone Data : JTWC Advisories

Name: IRINA
Number: 1214

24 Feb 2012 18:00 UTC to 10 Mar 2012 18:00 UTC

    date/time    lat    long     hPa   cat  kts
2012-02-24 18   13.0    57.7    1007         20          
2012-02-25 00   13.3    56.4    1007         20          
2012-02-25 06   13.5    55.5    1007         20          
2012-02-25 12   13.7    54.4    1007         20          
2012-02-25 18   13.6    53.1    1000         25          
2012-02-26 00   13.4    51.9    1000         30          
2012-02-26 06   13.3    51.0    1004         25          
2012-02-26 12   13.3    50.2    1004         25          
2012-02-26 18   13.4    49.4     998         30          
2012-02-27 00   13.5    48.5     998         30          
2012-02-27 06   14.3    47.6    1004         25          
2012-02-27 12   15.3    46.3    1004         25          
2012-02-27 18   15.9    45.9    1003         25          
2012-02-28 00   16.1    45.2    1004         25          
2012-02-28 06   16.1    45.0     999         30          
2012-02-28 12   16.1    44.8    1004         25          
2012-02-28 18   16.1    44.6     999         25          
2012-02-29 00   16.1    44.4     996    1    35          
2012-02-29 06   16.2    44.2     993    1    40          
2012-02-29 12   16.4    43.9     985    2    50          
2012-02-29 18   16.7    43.6     978    2    60          
2012-03-01 00   17.2    43.7     978    2    60          
2012-03-01 03   17.7    43.9     978    2    60          
2012-03-01 06   18.3    44.0     978    2    60          
2012-03-01 12   19.7    43.7     982    2    55          
2012-03-01 18   21.0    43.3     982    2    55          
2012-03-02 00   22.0    42.4     982    2    55          
2012-03-02 06   23.1    41.5     982    2    55          
2012-03-02 12   24.3    40.2     985    2    50          
2012-03-02 18   25.1    39.5     993    1    40          
2012-03-03 00   25.4    38.2     996    1    35          
2012-03-03 06   25.6    36.7     996    1    35          
2012-03-03 12   25.6    35.3     993    1    40          
2012-03-03 18   25.8    34.6     989    1    45          
2012-03-04 00   26.0    34.2     989    1    45          
2012-03-04 06   26.4    33.9     993    1    40          
2012-03-04 12   27.3    34.0     993    1    40          
2012-03-04 18   28.4    34.5     993    2    50          
2012-03-05 00   29.4    34.5     985    2    50          
2012-03-05 06   30.2    34.9     985    2    50          
2012-03-05 12   30.6    35.5     985    2    50          
2012-03-05 18   30.6    36.9     985    2    50          
2012-03-06 00   30.7    38.0     989    1    45          
2012-03-06 06   30.7    38.6     989    1    45          
2012-03-06 12   30.4    39.3     989    1    45          
2012-03-06 18   30.0    40.4     989    1    45          
2012-03-07 00   29.7    40.9     989    1    45          
2012-03-07 06   29.5    40.9     989    1    45          
2012-03-07 12   29.4    40.6     989    1    45          
2012-03-07 18   29.4    40.8     989    1    45          
2012-03-08 00   29.4    40.6     989    1    45          
2012-03-08 06   29.5    40.3     989    1    45          
2012-03-08 12   29.6    40.1     989    1    45          
2012-03-08 18   29.6    39.7     989    1    45          
2012-03-09 00   29.5    39.3     993    1    40          
2012-03-09 06   29.6    38.5     993    1    40          
2012-03-09 12   29.6    37.6     996    1    35          
2012-03-09 18   29.6    36.9    1000         30          
2012-03-10 00   29.6    36.3    1000         30          
2012-03-10 06   29.3    35.9    1000         30          
2012-03-10 12   29.0    35.7    1000         30          
2012-03-10 18   29.9    36.0                             
Winds are 10-min average.

Tropical cyclone tracks developed by Michael Bath using operational warnings and advisories and Google Maps.


[Australian Severe Weather index] [Copyright Notice] [Email Contacts] [Search This Site] [Privacy Policy]
Document: tropical_cyclone_irina.htm Updated: 2 May 2017